createdAt,value
2017-09-26T00:00:45.693Z,76.29
2017-09-26T00:01:45.682Z,76.01
2017-09-26T00:02:45.670Z,75.81
2017-09-26T00:03:45.658Z,76.10
2017-09-26T00:04:45.647Z,75.81
2017-09-26T00:05:45.786Z,75.91
2017-09-26T00:06:45.628Z,75.91
2017-09-26T00:07:45.611Z,75.91
2017-09-26T00:08:45.599Z,75.81
2017-09-26T00:09:45.588Z,75.72
2017-09-26T00:10:45.575Z,75.62
2017-09-26T00:11:45.714Z,75.53
2017-09-26T00:12:45.551Z,75.72
2017-09-26T00:13:45.540Z,75.62
2017-09-26T00:14:45.529Z,75.72
2017-09-26T00:15:45.516Z,75.81
2017-09-26T00:16:45.505Z,75.53
2017-09-26T00:17:45.643Z,75.43
2017-09-26T00:18:45.479Z,75.62
2017-09-26T00:19:45.467Z,75.81
2017-09-26T00:20:45.457Z,75.81
2017-09-26T00:21:45.447Z,76.01
2017-09-26T00:22:45.434Z,75.43
2017-09-26T00:23:45.573Z,75.53
2017-09-26T00:24:45.412Z,76.29
2017-09-26T00:25:45.400Z,75.91
2017-09-26T00:26:45.388Z,76.10
2017-09-26T00:27:45.376Z,76.10
2017-09-26T00:28:45.364Z,75.91
2017-09-26T00:29:45.502Z,76.01
2017-09-26T00:30:45.341Z,76.10
2017-09-26T00:31:45.328Z,76.48
2017-09-26T00:32:45.316Z,76.48
2017-09-26T00:33:45.303Z,76.67
2017-09-26T00:34:45.294Z,76.29
2017-09-26T00:35:45.429Z,76.48
2017-09-26T00:36:45.270Z,76.67
2017-09-26T00:37:45.258Z,77.24
2017-09-26T00:38:45.245Z,77.05
2017-09-26T00:39:45.238Z,76.96
2017-09-26T00:40:45.221Z,77.15
2017-09-26T00:41:45.357Z,77.43
2017-09-26T00:42:45.196Z,76.86
2017-09-26T00:43:45.183Z,76.86
2017-09-26T00:44:45.172Z,77.15
2017-09-26T00:45:45.158Z,76.86
2017-09-26T00:46:45.182Z,77.05
2017-09-26T00:47:45.293Z,77.05
2017-09-26T00:48:45.122Z,76.96
2017-09-26T00:49:45.112Z,77.05
2017-09-26T00:50:45.100Z,76.86
2017-09-26T00:51:45.088Z,77.62
2017-09-26T00:52:45.075Z,77.43
2017-09-26T00:53:45.215Z,77.43
2017-09-26T00:54:45.059Z,77.81
2017-09-26T00:55:45.040Z,77.72
2017-09-26T00:56:45.030Z,77.62
2017-09-26T00:57:45.017Z,77.81
2017-09-26T00:58:45.014Z,77.91
2017-09-26T00:59:45.143Z,77.72
2017-09-26T01:00:44.980Z,77.43
2017-09-26T01:01:44.969Z,77.91
2017-09-26T01:02:44.957Z,77.53
2017-09-26T01:03:44.945Z,77.62
2017-09-26T01:04:44.933Z,77.81
2017-09-26T01:05:45.071Z,78.38
2017-09-26T01:06:44.911Z,79.14
2017-09-26T01:07:44.898Z,79.05
2017-09-26T01:08:44.885Z,78.57
2017-09-26T01:09:44.874Z,79.05
2017-09-26T01:10:44.862Z,79.33
2017-09-26T01:11:45.099Z,79.58
2017-09-26T01:12:44.838Z,79.05
2017-09-26T01:13:44.827Z,79.05
2017-09-26T01:14:44.813Z,79.62
2017-09-26T01:15:44.802Z,79.20
2017-09-26T01:16:44.789Z,79.30
2017-09-26T01:17:44.930Z,79.49
2017-09-26T01:18:44.767Z,80.10
2017-09-26T01:19:44.754Z,79.81
2017-09-26T01:20:44.743Z,80.29
2017-09-26T01:21:44.731Z,80.76
2017-09-26T01:22:44.719Z,81.29
2017-09-26T01:23:44.856Z,81.48
2017-09-26T01:24:44.695Z,81.67
2017-09-26T01:25:44.686Z,81.67
2017-09-26T01:26:44.671Z,81.77
2017-09-26T01:27:44.659Z,81.77
2017-09-26T01:28:44.647Z,81.67
2017-09-26T01:29:44.784Z,81.77
2017-09-26T01:30:44.624Z,81.86
2017-09-26T01:31:44.611Z,82.05
2017-09-26T01:32:44.600Z,81.86
2017-09-26T01:33:44.588Z,82.24
2017-09-26T01:34:44.576Z,81.96
2017-09-26T01:35:44.714Z,81.96
2017-09-26T01:36:44.555Z,81.20
2017-09-26T01:37:44.541Z,81.20
2017-09-26T01:38:44.528Z,81.10
2017-09-26T01:39:44.515Z,81.10
2017-09-26T01:40:44.506Z,80.82
2017-09-26T01:41:44.643Z,81.29
2017-09-26T01:42:44.481Z,81.10
2017-09-26T01:43:44.470Z,81.20
2017-09-26T01:44:44.457Z,81.10
2017-09-26T01:45:44.445Z,81.20
2017-09-26T01:46:44.433Z,82.34
2017-09-26T01:47:44.570Z,83.00
2017-09-26T01:48:44.413Z,83.29
2017-09-26T01:49:44.396Z,83.19
2017-09-26T01:50:44.383Z,83.39
2017-09-26T01:51:44.371Z,83.39
2017-09-26T01:52:44.362Z,83.76
2017-09-26T01:53:44.498Z,84.14
2017-09-26T01:54:44.333Z,84.14
2017-09-26T01:55:44.322Z,84.52
2017-09-26T01:56:44.310Z,84.14
2017-09-26T01:57:44.299Z,84.24
2017-09-26T01:58:44.287Z,84.39
2017-09-26T01:59:44.424Z,84.72
2017-09-26T02:00:44.261Z,84.10
2017-09-26T02:01:44.248Z,84.01
2017-09-26T02:02:44.236Z,84.77
2017-09-26T02:03:44.223Z,84.20
2017-09-26T02:04:44.211Z,84.39
2017-09-26T02:05:44.348Z,84.86
2017-09-26T02:06:44.188Z,85.34
2017-09-26T02:07:44.173Z,85.43
2017-09-26T02:08:44.160Z,85.24
2017-09-26T02:09:44.148Z,84.95
2017-09-26T02:10:44.133Z,85.24
2017-09-26T02:11:44.271Z,85.24
2017-09-26T02:12:44.110Z,85.43
2017-09-26T02:13:44.097Z,85.43
2017-09-26T02:14:44.084Z,84.95
2017-09-26T02:15:44.072Z,85.05
2017-09-26T02:16:44.058Z,85.53
2017-09-26T02:17:44.197Z,85.24
2017-09-26T02:18:44.035Z,85.24
2017-09-26T02:19:44.021Z,85.15
2017-09-26T02:20:44.009Z,85.24
2017-09-26T02:21:43.996Z,84.67
2017-09-26T02:22:43.984Z,84.67
2017-09-26T02:23:44.121Z,84.58
2017-09-26T02:24:43.958Z,84.14
2017-09-26T02:25:43.948Z,84.29
2017-09-26T02:26:43.934Z,84.01
2017-09-26T02:27:44.070Z,84.24
2017-09-26T02:28:43.909Z,83.91
2017-09-26T02:29:44.046Z,83.91
2017-09-26T02:30:43.883Z,83.76
2017-09-26T02:31:43.870Z,83.44
2017-09-26T02:32:43.858Z,83.39
2017-09-26T02:33:43.853Z,83.34
2017-09-26T02:34:43.834Z,82.87
2017-09-26T02:35:43.969Z,82.91
2017-09-26T02:36:43.808Z,83.06
2017-09-26T02:37:43.795Z,82.77
2017-09-26T02:38:43.786Z,82.77
2017-09-26T02:39:43.769Z,83.82
2017-09-26T02:40:43.758Z,83.44
2017-09-26T02:41:43.895Z,83.06
2017-09-26T02:42:43.731Z,83.34
2017-09-26T02:43:43.720Z,83.62
2017-09-26T02:44:43.711Z,83.53
2017-09-26T02:45:43.693Z,83.53
2017-09-26T02:46:43.685Z,83.34
2017-09-26T02:47:43.819Z,83.62
2017-09-26T02:48:43.657Z,83.82
2017-09-26T02:49:43.644Z,83.72
2017-09-26T02:50:43.631Z,83.82
2017-09-26T02:51:43.618Z,83.72
2017-09-26T02:52:43.608Z,84.01
2017-09-26T02:53:43.743Z,84.10
2017-09-26T02:54:43.581Z,84.58
2017-09-26T02:55:43.569Z,84.29
2017-09-26T02:56:43.556Z,84.67
2017-09-26T02:57:43.544Z,84.39
2017-09-26T02:58:43.530Z,84.29
2017-09-26T02:59:43.667Z,84.39
2017-09-26T03:00:43.506Z,83.91
2017-09-26T03:01:43.493Z,84.20
2017-09-26T03:02:43.480Z,84.20
2017-09-26T03:03:43.467Z,84.10
2017-09-26T03:04:43.453Z,84.10
2017-09-26T03:05:43.590Z,84.20
2017-09-26T03:06:43.428Z,84.10
2017-09-26T03:07:43.415Z,83.62
2017-09-26T03:08:43.402Z,83.62
2017-09-26T03:09:43.390Z,83.72
2017-09-26T03:10:43.528Z,83.72
2017-09-26T03:11:43.514Z,83.72
2017-09-26T03:12:43.358Z,83.72
2017-09-26T03:13:43.343Z,83.72
2017-09-26T03:14:43.326Z,83.44
2017-09-26T03:15:43.312Z,83.62
2017-09-26T03:16:43.300Z,83.91
2017-09-26T03:17:43.438Z,83.91
2017-09-26T03:18:43.274Z,83.78
2017-09-26T03:19:43.260Z,83.44
2017-09-26T03:20:43.399Z,83.53
2017-09-26T03:21:43.235Z,83.34
2017-09-26T03:22:43.222Z,83.15
2017-09-26T03:23:43.361Z,83.62
2017-09-26T03:24:43.197Z,83.62
2017-09-26T03:25:43.184Z,83.72
2017-09-26T03:26:43.172Z,83.06
2017-09-26T03:27:43.161Z,83.34
2017-09-26T03:28:43.145Z,83.44
2017-09-26T03:29:43.283Z,83.25
2017-09-26T03:30:43.119Z,82.82
2017-09-26T03:31:43.104Z,82.92
2017-09-26T03:32:43.094Z,82.73
2017-09-26T03:33:43.081Z,82.87
2017-09-26T03:34:43.066Z,83.11
2017-09-26T03:35:43.205Z,83.11
2017-09-26T03:36:43.042Z,83.97
2017-09-26T03:37:43.028Z,83.49
2017-09-26T03:38:43.017Z,83.11
2017-09-26T03:39:43.003Z,82.73
2017-09-26T03:40:42.991Z,83.01
2017-09-26T03:41:43.128Z,83.11
2017-09-26T03:42:42.965Z,82.73
2017-09-26T03:43:42.951Z,82.45
2017-09-26T03:44:42.938Z,82.54
2017-09-26T03:45:42.926Z,82.16
2017-09-26T03:46:42.913Z,82.73
2017-09-26T03:47:43.053Z,82.54
2017-09-26T03:48:42.886Z,82.26
2017-09-26T03:49:42.872Z,81.97
2017-09-26T03:50:42.860Z,81.97
2017-09-26T03:51:42.848Z,82.35
2017-09-26T03:52:42.834Z,82.64
2017-09-26T03:53:42.971Z,82.64
2017-09-26T03:54:42.808Z,82.35
2017-09-26T03:55:42.805Z,82.07
2017-09-26T03:56:42.780Z,82.26
2017-09-26T03:57:42.768Z,82.16
2017-09-26T03:58:42.756Z,82.26
2017-09-26T03:59:42.890Z,82.45
2017-09-26T04:00:42.726Z,82.07
2017-09-26T04:01:42.713Z,81.97
2017-09-26T04:02:42.701Z,82.07
2017-09-26T04:03:42.687Z,82.16
2017-09-26T04:04:42.674Z,81.78
2017-09-26T04:05:42.863Z,81.97
2017-09-26T04:06:42.647Z,81.97
2017-09-26T04:07:42.632Z,81.87
2017-09-26T04:08:42.624Z,81.97
2017-09-26T04:09:42.607Z,81.97
2017-09-26T04:10:42.594Z,81.97
2017-09-26T04:11:42.788Z,82.73
2017-09-26T04:12:42.567Z,82.26
2017-09-26T04:13:42.553Z,82.26
2017-09-26T04:14:42.540Z,82.64
2017-09-26T04:15:42.523Z,82.92
2017-09-26T04:16:42.511Z,82.92
2017-09-26T04:17:42.648Z,83.16
2017-09-26T04:18:42.485Z,83.36
2017-09-26T04:19:42.470Z,83.54
2017-09-26T04:20:42.457Z,83.45
2017-09-26T04:21:42.444Z,83.36
2017-09-26T04:22:42.429Z,83.73
2017-09-26T04:23:42.567Z,83.20
2017-09-26T04:24:42.404Z,83.20
2017-09-26T04:25:42.389Z,82.88
2017-09-26T04:26:42.376Z,82.97
2017-09-26T04:27:42.362Z,83.01
2017-09-26T04:28:42.346Z,83.16
2017-09-26T04:29:42.535Z,83.11
2017-09-26T04:30:42.322Z,83.11
2017-09-26T04:31:42.307Z,83.01
2017-09-26T04:32:42.294Z,82.26
2017-09-26T04:33:42.280Z,82.45
2017-09-26T04:34:42.270Z,82.35
2017-09-26T04:35:42.403Z,82.50
2017-09-26T04:36:42.239Z,82.26
2017-09-26T04:37:42.226Z,82.45
2017-09-26T04:38:42.213Z,82.16
2017-09-26T04:39:42.202Z,81.97
2017-09-26T04:40:42.184Z,81.78
2017-09-26T04:41:42.170Z,82.26
2017-09-26T04:42:42.307Z,82.07
2017-09-26T04:43:42.143Z,82.07
2017-09-26T04:44:42.129Z,82.07
2017-09-26T04:45:42.115Z,81.59
2017-09-26T04:46:42.103Z,81.78
2017-09-26T04:47:42.088Z,81.78
2017-09-26T04:48:42.273Z,81.78
2017-09-26T04:49:42.060Z,81.68
2017-09-26T04:50:42.047Z,81.87
2017-09-26T04:51:42.032Z,81.68
2017-09-26T04:52:42.018Z,81.84
2017-09-26T04:53:42.005Z,81.78
2017-09-26T04:54:42.142Z,81.78
2017-09-26T04:55:41.977Z,81.74
2017-09-26T04:56:41.963Z,81.93
2017-09-26T04:57:41.950Z,82.03
2017-09-26T04:58:41.936Z,81.36
2017-09-26T04:59:41.922Z,81.65
2017-09-26T05:00:42.059Z,81.93
2017-09-26T05:01:41.895Z,81.45
2017-09-26T05:02:41.881Z,81.93
2017-09-26T05:03:41.867Z,81.65
2017-09-26T05:04:41.853Z,81.55
2017-09-26T05:05:41.990Z,81.74
2017-09-26T05:06:41.976Z,81.84
2017-09-26T05:07:41.811Z,81.84
2017-09-26T05:08:41.797Z,81.93
2017-09-26T05:09:41.783Z,81.84
2017-09-26T05:10:41.772Z,81.84
2017-09-26T05:11:41.756Z,81.93
2017-09-26T05:12:41.892Z,81.93
2017-09-26T05:13:41.729Z,81.65
2017-09-26T05:14:41.715Z,81.65
2017-09-26T05:15:41.698Z,81.74
2017-09-26T05:16:41.687Z,81.55
2017-09-26T05:17:41.672Z,81.93
2017-09-26T05:18:41.808Z,81.65
2017-09-26T05:19:41.644Z,82.03
2017-09-26T05:20:41.629Z,82.31
2017-09-26T05:21:41.617Z,82.31
2017-09-26T05:22:41.603Z,82.50
2017-09-26T05:23:41.587Z,82.31
2017-09-26T05:24:41.723Z,82.40
2017-09-26T05:25:41.558Z,82.31
2017-09-26T05:26:41.546Z,82.12
2017-09-26T05:27:41.531Z,82.31
2017-09-26T05:28:41.517Z,82.12
2017-09-26T05:29:41.503Z,82.40
2017-09-26T05:30:41.640Z,82.50
2017-09-26T05:31:41.474Z,82.40
2017-09-26T05:32:41.459Z,82.40
2017-09-26T05:33:41.446Z,82.12
2017-09-26T05:34:41.432Z,82.31
2017-09-26T05:35:41.568Z,82.31
2017-09-26T05:36:41.554Z,82.12
2017-09-26T05:37:41.542Z,82.31
2017-09-26T05:38:41.376Z,82.50
2017-09-26T05:39:41.362Z,82.59
2017-09-26T05:40:41.347Z,82.12
2017-09-26T05:41:41.332Z,82.69
2017-09-26T05:42:41.319Z,82.69
2017-09-26T05:43:41.455Z,82.03
2017-09-26T05:44:41.293Z,82.50
2017-09-26T05:45:41.278Z,82.03
2017-09-26T05:46:41.264Z,82.69
2017-09-26T05:47:41.248Z,82.59
2017-09-26T05:48:41.235Z,82.59
2017-09-26T05:49:41.371Z,82.40
2017-09-26T05:50:41.206Z,82.31
2017-09-26T05:51:41.193Z,82.40
2017-09-26T05:52:41.177Z,82.78
2017-09-26T05:53:41.166Z,82.59
2017-09-26T05:54:41.151Z,82.50
2017-09-26T05:55:41.335Z,82.69
2017-09-26T05:56:41.120Z,82.97
2017-09-26T05:57:41.108Z,82.40
2017-09-26T05:58:41.094Z,82.31
2017-09-26T05:59:41.078Z,82.40
2017-09-26T06:00:41.065Z,82.31
2017-09-26T06:01:41.252Z,82.97
2017-09-26T06:02:41.038Z,82.97
2017-09-26T06:03:41.025Z,82.78
2017-09-26T06:04:41.010Z,83.07
2017-09-26T06:05:40.995Z,82.78
2017-09-26T06:06:41.132Z,82.88
2017-09-26T06:07:41.117Z,83.16
2017-09-26T06:08:40.952Z,82.31
2017-09-26T06:09:40.938Z,82.59
2017-09-26T06:10:40.924Z,82.88
2017-09-26T06:11:40.912Z,82.97
2017-09-26T06:12:40.896Z,82.78
2017-09-26T06:13:41.033Z,82.31
2017-09-26T06:14:40.870Z,82.50
2017-09-26T06:15:40.879Z,82.64
2017-09-26T06:16:40.840Z,82.82
2017-09-26T06:17:40.828Z,83.68
2017-09-26T06:18:40.815Z,84.06
2017-09-26T06:19:40.951Z,83.68
2017-09-26T06:20:40.786Z,83.39
2017-09-26T06:21:40.772Z,83.01
2017-09-26T06:22:40.759Z,82.82
2017-09-26T06:23:40.741Z,81.40
2017-09-26T06:24:40.730Z,81.49
2017-09-26T06:25:40.865Z,81.49
2017-09-26T06:26:40.702Z,82.07
2017-09-26T06:27:40.686Z,81.68
2017-09-26T06:28:40.676Z,81.97
2017-09-26T06:29:40.661Z,82.07
2017-09-26T06:30:40.798Z,82.26
2017-09-26T06:31:40.785Z,84.06
2017-09-26T06:32:40.622Z,86.63
2017-09-26T06:33:40.605Z,88.90
2017-09-26T06:34:40.594Z,90.75
2017-09-26T06:35:40.580Z,88.90
2017-09-26T06:36:40.566Z,82.71
2017-09-26T06:37:40.705Z,79.86
2017-09-26T06:38:40.542Z,78.38
2017-09-26T06:39:40.530Z,79.33
2017-09-26T06:40:40.516Z,76.96
2017-09-26T06:41:40.505Z,74.20
2017-09-26T06:42:40.493Z,74.58
2017-09-26T06:43:40.629Z,74.48
2017-09-26T06:44:40.469Z,74.71
2017-09-26T06:45:40.458Z,72.86
2017-09-26T06:46:40.447Z,72.39
2017-09-26T06:47:40.435Z,72.49
2017-09-26T06:48:40.423Z,72.96
2017-09-26T06:49:40.562Z,73.53
2017-09-26T06:50:40.403Z,75.53
2017-09-26T06:51:40.391Z,74.67
2017-09-26T06:52:40.379Z,74.96
2017-09-26T06:53:40.519Z,73.95
2017-09-26T06:54:40.359Z,71.95
2017-09-26T06:55:40.495Z,70.90
2017-09-26T06:56:40.335Z,71.95
2017-09-26T06:57:40.325Z,71.86
2017-09-26T06:58:40.315Z,71.00
2017-09-26T06:59:40.303Z,71.38
2017-09-26T07:00:40.293Z,72.05
2017-09-26T07:01:40.433Z,72.24
2017-09-26T07:02:40.272Z,71.47
2017-09-26T07:03:40.261Z,71.61
2017-09-26T07:04:40.400Z,71.13
2017-09-26T07:05:40.240Z,69.79
2017-09-26T07:06:40.230Z,69.89
2017-09-26T07:07:40.468Z,70.08
2017-09-26T07:08:40.208Z,69.89
2017-09-26T07:09:40.199Z,70.37
2017-09-26T07:10:40.186Z,69.23
2017-09-26T07:11:40.179Z,69.32
2017-09-26T07:12:40.166Z,69.32
2017-09-26T07:13:40.457Z,69.60
2017-09-26T07:14:40.150Z,70.75
2017-09-26T07:15:40.135Z,70.02
2017-09-26T07:16:40.125Z,68.40
2017-09-26T07:17:40.115Z,70.02
2017-09-26T07:18:40.107Z,69.07
2017-09-26T07:19:40.194Z,68.27
2017-09-26T07:20:40.082Z,68.37
2017-09-26T07:21:40.075Z,68.46
2017-09-26T07:22:40.064Z,68.94
2017-09-26T07:23:40.053Z,69.79
2017-09-26T07:24:40.043Z,71.42
2017-09-26T07:25:40.132Z,69.99
2017-09-26T07:26:40.023Z,69.89
2017-09-26T07:27:40.012Z,70.08
2017-09-26T07:28:40.001Z,69.89
2017-09-26T07:29:39.992Z,68.88
2017-09-26T07:30:40.080Z,68.98
2017-09-26T07:31:40.070Z,68.78
2017-09-26T07:32:39.959Z,67.74
2017-09-26T07:33:39.949Z,68.12
2017-09-26T07:34:39.938Z,67.07
2017-09-26T07:35:39.927Z,68.69
2017-09-26T07:36:39.919Z,68.02
2017-09-26T07:37:40.007Z,66.69
2017-09-26T07:38:39.999Z,66.88
2017-09-26T07:39:39.888Z,66.72
2017-09-26T07:40:39.876Z,68.24
2017-09-26T07:41:39.866Z,66.47
2017-09-26T07:42:39.857Z,65.42
2017-09-26T07:43:39.849Z,65.23
2017-09-26T07:44:39.936Z,63.35
2017-09-26T07:45:39.827Z,62.78
2017-09-26T07:46:39.815Z,60.11
2017-09-26T07:47:39.806Z,60.14
2017-09-26T07:48:39.797Z,60.84
2017-09-26T07:49:39.787Z,58.76
2017-09-26T07:50:39.877Z,58.22
2017-09-26T07:51:39.768Z,54.49
2017-09-26T07:52:39.762Z,54.61
2017-09-26T07:53:39.746Z,53.49
2017-09-26T07:54:39.739Z,50.74
2017-09-26T07:55:39.729Z,48.95
2017-09-26T07:56:39.819Z,48.40
2017-09-26T07:57:39.710Z,47.46
2017-09-26T07:58:39.702Z,45.09
2017-09-26T07:59:39.691Z,44.23
2017-09-26T08:00:39.682Z,42.61
2017-09-26T08:01:39.674Z,41.77
2017-09-26T08:02:39.764Z,39.49
2017-09-26T08:03:39.657Z,38.93
2017-09-26T08:04:39.650Z,37.51
2017-09-26T08:05:39.641Z,36.47
2017-09-26T08:06:39.632Z,35.02
2017-09-26T08:07:39.625Z,34.27
2017-09-26T08:08:39.718Z,34.84
2017-09-26T08:09:39.611Z,34.09
2017-09-26T08:10:39.605Z,33.59
2017-09-26T08:11:39.596Z,34.66
2017-09-26T08:12:39.592Z,35.24
2017-09-26T08:13:39.589Z,35.16
2017-09-26T08:14:39.733Z,35.35
2017-09-26T08:15:39.577Z,33.23
2017-09-26T08:16:39.572Z,32.76
2017-09-26T08:17:39.569Z,32.68
2017-09-26T08:18:39.567Z,31.62
2017-09-26T08:19:39.562Z,32.21
2017-09-26T08:20:39.709Z,32.29
2017-09-26T08:21:39.558Z,32.26
2017-09-26T08:22:39.556Z,33.59
2017-09-26T08:23:39.554Z,33.75
2017-09-26T08:24:39.553Z,34.89
2017-09-26T08:25:39.552Z,36.24
2017-09-26T08:26:39.701Z,36.60
2017-09-26T08:27:39.548Z,38.02
2017-09-26T08:28:39.549Z,38.96
2017-09-26T08:29:39.549Z,41.25
2017-09-26T08:30:39.546Z,42.29
2017-09-26T08:31:39.544Z,43.05
2017-09-26T08:32:39.747Z,44.09
2017-09-26T08:33:39.547Z,44.18
2017-09-26T08:34:39.548Z,44.47
2017-09-26T08:35:39.548Z,45.02
2017-09-26T08:36:39.549Z,45.89
2017-09-26T08:37:39.552Z,46.15
2017-09-26T08:38:39.702Z,48.33
2017-09-26T08:39:39.552Z,49.09
2017-09-26T08:40:39.556Z,49.45
2017-09-26T08:41:39.555Z,50.67
2017-09-26T08:42:39.554Z,52.58
2017-09-26T08:43:39.552Z,53.16
2017-09-26T08:44:39.751Z,53.34
2017-09-26T08:45:39.550Z,53.89
2017-09-26T08:46:39.546Z,54.47
2017-09-26T08:47:39.542Z,55.32
2017-09-26T08:48:39.539Z,55.96
2017-09-26T08:49:39.536Z,57.11
2017-09-26T08:50:39.682Z,57.11
2017-09-26T08:51:39.527Z,57.94
2017-09-26T08:52:39.524Z,59.47
2017-09-26T08:53:39.518Z,60.14
2017-09-26T08:54:39.513Z,60.04
2017-09-26T08:55:39.506Z,60.14
2017-09-26T08:56:39.652Z,60.02
2017-09-26T08:57:39.497Z,60.30
2017-09-26T08:58:39.490Z,60.68
2017-09-26T08:59:39.483Z,61.25
2017-09-26T09:00:39.478Z,61.35
2017-09-26T09:01:39.470Z,61.07
2017-09-26T09:02:39.667Z,61.16
2017-09-26T09:03:39.456Z,61.92
2017-09-26T09:04:39.448Z,61.07
2017-09-26T09:05:39.442Z,60.78
2017-09-26T09:06:39.435Z,60.58
2017-09-26T09:07:39.427Z,60.58
2017-09-26T09:08:39.571Z,60.68
2017-09-26T09:09:39.413Z,61.16
2017-09-26T09:10:39.555Z,61.35
2017-09-26T09:11:39.396Z,60.49
2017-09-26T09:12:39.390Z,59.92
2017-09-26T09:13:39.382Z,59.73
2017-09-26T09:14:39.524Z,59.53
2017-09-26T09:15:39.365Z,59.73
2017-09-26T09:16:39.357Z,59.63
2017-09-26T09:17:39.348Z,60.11
2017-09-26T09:18:39.342Z,59.53
2017-09-26T09:19:39.332Z,59.34
2017-09-26T09:20:39.475Z,59.16
2017-09-26T09:21:39.316Z,59.06
2017-09-26T09:22:39.309Z,59.34
2017-09-26T09:23:39.300Z,58.39
2017-09-26T09:24:39.291Z,57.79
2017-09-26T09:25:39.284Z,58.48
2017-09-26T09:26:39.425Z,59.25
2017-09-26T09:27:39.265Z,59.25
2017-09-26T09:28:39.257Z,58.77
2017-09-26T09:29:39.248Z,59.34
2017-09-26T09:30:39.241Z,59.63
2017-09-26T09:31:39.231Z,59.34
2017-09-26T09:32:39.373Z,59.63
2017-09-26T09:33:39.214Z,60.58
2017-09-26T09:34:39.210Z,61.16
2017-09-26T09:35:39.197Z,61.54
2017-09-26T09:36:39.190Z,61.44
2017-09-26T09:37:39.179Z,61.44
2017-09-26T09:38:39.321Z,61.44
2017-09-26T09:39:39.162Z,61.83
2017-09-26T09:40:39.154Z,61.54
2017-09-26T09:41:39.146Z,61.57
2017-09-26T09:42:39.137Z,62.11
2017-09-26T09:43:39.133Z,61.76
2017-09-26T09:44:39.271Z,62.34
2017-09-26T09:45:39.114Z,61.10
2017-09-26T09:46:39.103Z,59.76
2017-09-26T09:47:39.093Z,60.81
2017-09-26T09:48:39.186Z,60.87
2017-09-26T09:49:39.077Z,60.11
2017-09-26T09:50:39.217Z,60.39
2017-09-26T09:51:39.058Z,60.97
2017-09-26T09:52:39.048Z,61.25
2017-09-26T09:53:39.044Z,61.25
2017-09-26T09:54:39.032Z,60.61
2017-09-26T09:55:39.023Z,60.24
2017-09-26T09:56:39.164Z,60.61
2017-09-26T09:57:39.006Z,61.29
2017-09-26T09:58:38.997Z,60.71
2017-09-26T09:59:38.988Z,60.81
2017-09-26T10:00:38.979Z,61.00
2017-09-26T10:01:38.971Z,60.81
2017-09-26T10:02:39.113Z,60.04
2017-09-26T10:03:38.953Z,60.24
2017-09-26T10:04:38.943Z,60.42
2017-09-26T10:05:38.943Z,59.47
2017-09-26T10:06:38.925Z,60.14
2017-09-26T10:07:38.918Z,60.52
2017-09-26T10:08:39.059Z,61.95
2017-09-26T10:09:38.900Z,61.95
2017-09-26T10:10:38.890Z,63.23
2017-09-26T10:11:38.882Z,62.40
2017-09-26T10:12:38.872Z,60.96
2017-09-26T10:13:38.865Z,62.01
2017-09-26T10:14:39.006Z,60.68
2017-09-26T10:15:38.847Z,57.81
2017-09-26T10:16:38.840Z,60.77
2017-09-26T10:17:38.829Z,60.30
2017-09-26T10:18:38.820Z,61.72
2017-09-26T10:19:38.812Z,59.44
2017-09-26T10:20:38.954Z,58.19
2017-09-26T10:21:38.796Z,58.58
2017-09-26T10:22:38.789Z,58.67
2017-09-26T10:23:38.776Z,61.16
2017-09-26T10:24:38.768Z,59.63
2017-09-26T10:25:38.910Z,58.48
2017-09-26T10:26:38.902Z,57.90
2017-09-26T10:27:38.742Z,55.71
2017-09-26T10:28:38.737Z,57.04
2017-09-26T10:29:38.725Z,56.67
2017-09-26T10:30:38.717Z,56.18
2017-09-26T10:31:38.708Z,55.23
2017-09-26T10:32:38.850Z,55.26
2017-09-26T10:33:38.689Z,56.50
2017-09-26T10:34:38.683Z,56.79
2017-09-26T10:35:38.672Z,57.29
2017-09-26T10:36:38.665Z,55.47
2017-09-26T10:37:38.660Z,55.86
2017-09-26T10:38:38.799Z,56.05
2017-09-26T10:39:38.638Z,52.22
2017-09-26T10:40:38.632Z,53.18
2017-09-26T10:41:38.623Z,54.33
2017-09-26T10:42:38.616Z,55.88
2017-09-26T10:43:38.613Z,53.20
2017-09-26T10:44:38.748Z,51.17
2017-09-26T10:45:38.595Z,52.99
2017-09-26T10:46:38.582Z,48.88
2017-09-26T10:47:38.574Z,50.50
2017-09-26T10:48:38.565Z,50.60
2017-09-26T10:49:38.557Z,52.22
2017-09-26T10:50:38.699Z,53.47
2017-09-26T10:51:38.540Z,53.18
2017-09-26T10:52:38.532Z,55.76
2017-09-26T10:53:38.525Z,53.56
2017-09-26T10:54:38.517Z,52.39
2017-09-26T10:55:38.508Z,52.20
2017-09-26T10:56:38.650Z,50.21
2017-09-26T10:57:38.492Z,54.71
2017-09-26T10:58:38.483Z,50.02
2017-09-26T10:59:38.474Z,49.84
2017-09-26T11:00:38.467Z,48.39
2017-09-26T11:01:38.460Z,50.31
2017-09-26T11:02:38.604Z,48.30
2017-09-26T11:03:38.445Z,48.21
2017-09-26T11:04:38.436Z,50.81
2017-09-26T11:05:38.428Z,52.63
2017-09-26T11:06:38.424Z,52.25
2017-09-26T11:07:38.411Z,45.84
2017-09-26T11:08:38.605Z,47.85
2017-09-26T11:09:38.395Z,48.33
2017-09-26T11:10:38.387Z,48.42
2017-09-26T11:11:38.399Z,45.55
2017-09-26T11:12:38.373Z,45.84
2017-09-26T11:13:38.373Z,46.98
2017-09-26T11:14:38.512Z,48.21
2017-09-26T11:15:38.349Z,47.73
2017-09-26T11:16:38.342Z,48.49
2017-09-26T11:17:38.332Z,47.34
2017-09-26T11:18:38.325Z,47.53
2017-09-26T11:19:38.318Z,48.30
2017-09-26T11:20:38.459Z,47.73
2017-09-26T11:21:38.303Z,48.30
2017-09-26T11:22:38.296Z,48.68
2017-09-26T11:23:38.286Z,48.59
2017-09-26T11:24:38.281Z,48.80
2017-09-26T11:25:38.274Z,46.98
2017-09-26T11:26:38.414Z,51.48
2017-09-26T11:27:38.255Z,49.19
2017-09-26T11:28:38.249Z,48.80
2017-09-26T11:29:38.240Z,46.03
2017-09-26T11:30:38.236Z,45.74
2017-09-26T11:31:38.225Z,43.35
2017-09-26T11:32:38.368Z,43.44
2017-09-26T11:33:38.210Z,45.53
2017-09-26T11:34:38.202Z,47.66
2017-09-26T11:35:38.193Z,44.59
2017-09-26T11:36:38.188Z,43.44
2017-09-26T11:37:38.178Z,45.55
2017-09-26T11:38:38.375Z,44.21
2017-09-26T11:39:38.163Z,42.30
2017-09-26T11:40:38.153Z,41.44
2017-09-26T11:41:38.148Z,41.72
2017-09-26T11:42:38.139Z,42.30
2017-09-26T11:43:38.129Z,44.79
2017-09-26T11:44:38.304Z,46.44
2017-09-26T11:45:38.140Z,44.13
2017-09-26T11:46:38.109Z,43.16
2017-09-26T11:47:38.100Z,42.20
2017-09-26T11:48:38.093Z,42.30
2017-09-26T11:49:38.084Z,42.58
2017-09-26T11:50:38.278Z,43.73
2017-09-26T11:51:38.069Z,43.63
2017-09-26T11:52:38.062Z,42.97
2017-09-26T11:53:38.054Z,41.72
2017-09-26T11:54:38.046Z,42.87
2017-09-26T11:55:38.038Z,43.73
2017-09-26T11:56:38.231Z,44.43
2017-09-26T11:57:38.023Z,42.51
2017-09-26T11:58:38.016Z,42.03
2017-09-26T11:59:38.007Z,45.00
2017-09-26T12:00:37.999Z,46.05
2017-09-26T12:01:37.991Z,43.76
2017-09-26T12:02:38.184Z,44.43
2017-09-26T12:03:37.976Z,45.19
2017-09-26T12:04:37.968Z,42.13
2017-09-26T12:05:38.111Z,43.47
2017-09-26T12:06:37.951Z,42.49
2017-09-26T12:07:37.945Z,42.40
2017-09-26T12:08:38.140Z,40.95
2017-09-26T12:09:37.930Z,41.44
2017-09-26T12:10:37.923Z,42.49
2017-09-26T12:11:37.914Z,43.73
2017-09-26T12:12:37.906Z,42.40
2017-09-26T12:13:37.900Z,44.40
2017-09-26T12:14:38.093Z,45.67
2017-09-26T12:15:37.882Z,42.30
2017-09-26T12:16:37.873Z,41.34
2017-09-26T12:17:37.867Z,42.41
2017-09-26T12:18:37.858Z,45.29
2017-09-26T12:19:37.850Z,44.33
2017-09-26T12:20:37.993Z,43.56
2017-09-26T12:21:37.835Z,44.54
2017-09-26T12:22:37.828Z,40.23
2017-09-26T12:23:37.820Z,39.28
2017-09-26T12:24:37.812Z,38.32
2017-09-26T12:25:37.805Z,38.32
2017-09-26T12:26:37.951Z,36.40
2017-09-26T12:27:37.789Z,36.49
2017-09-26T12:28:37.782Z,40.04
2017-09-26T12:29:37.775Z,40.90
2017-09-26T12:30:37.768Z,40.04
2017-09-26T12:31:37.773Z,35.83
2017-09-26T12:32:37.904Z,34.87
2017-09-26T12:33:37.745Z,34.58
2017-09-26T12:34:37.738Z,34.77
2017-09-26T12:35:37.730Z,34.96
2017-09-26T12:36:37.724Z,33.91
2017-09-26T12:37:37.714Z,34.20
2017-09-26T12:38:37.857Z,32.57
2017-09-26T12:39:37.701Z,37.65
2017-09-26T12:40:37.694Z,38.41
2017-09-26T12:41:37.686Z,37.55
2017-09-26T12:42:37.679Z,35.35
2017-09-26T12:43:37.671Z,35.73
2017-09-26T12:44:37.816Z,35.71
2017-09-26T12:45:37.657Z,38.20
2017-09-26T12:46:37.651Z,40.98
2017-09-26T12:47:37.641Z,42.14
2017-09-26T12:48:37.634Z,39.37
2017-09-26T12:49:37.631Z,40.04
2017-09-26T12:50:37.821Z,40.04
2017-09-26T12:51:37.612Z,38.60
2017-09-26T12:52:37.605Z,39.75